createdAt,value
2023-01-24T00:00:28.709Z,59.11
2023-01-24T00:02:57.996Z,59.37
2023-01-24T00:05:26.816Z,59.19
2023-01-24T00:07:55.949Z,59.34
2023-01-24T00:10:23.685Z,59.14
2023-01-24T00:12:50.338Z,59.93
2023-01-24T00:15:17.590Z,59.67
2023-01-24T00:17:47.149Z,60.12
2023-01-24T00:20:16.820Z,60.28
2023-01-24T00:22:46.151Z,60.76
2023-01-24T00:25:15.337Z,61.74
2023-01-24T00:27:42.206Z,62.61
2023-01-24T00:30:12.319Z,63.15
2023-01-24T00:32:41.832Z,62.99
2023-01-24T00:35:08.705Z,62.89
2023-01-24T00:37:35.411Z,62.69
2023-01-24T00:40:02.138Z,62.71
2023-01-24T00:42:28.926Z,62.70
2023-01-24T00:45:00.798Z,63.06
2023-01-24T00:47:27.587Z,62.76
2023-01-24T00:49:54.684Z,62.53
2023-01-24T00:52:21.592Z,62.55
2023-01-24T00:54:51.295Z,62.31
2023-01-24T00:57:18.101Z,62.15
2023-01-24T00:59:44.644Z,62.03
2023-01-24T01:02:12.024Z,61.93
2023-01-24T01:04:38.742Z,61.63
2023-01-24T01:07:07.931Z,61.92
2023-01-24T01:09:37.507Z,62.05
2023-01-24T01:12:04.199Z,62.22
2023-01-24T01:14:33.453Z,62.39
2023-01-24T01:17:00.123Z,62.30
2023-01-24T01:19:29.065Z,62.46
2023-01-24T01:21:55.786Z,62.36
2023-01-24T01:24:30.475Z,62.48
2023-01-24T01:26:57.181Z,62.31
2023-01-24T01:29:26.730Z,62.24
2023-01-24T01:31:53.675Z,62.30
2023-01-24T01:34:28.265Z,62.36
2023-01-24T01:36:54.990Z,62.11
2023-01-24T01:39:21.656Z,61.74
2023-01-24T01:41:48.304Z,61.74
2023-01-24T01:44:36.704Z,61.64
2023-01-24T01:47:03.568Z,62.01
2023-01-24T01:49:32.575Z,62.07
2023-01-24T01:52:03.717Z,61.90
2023-01-24T01:54:31.690Z,61.80
2023-01-24T01:57:11.474Z,61.08
2023-01-24T01:59:39.929Z,61.52
2023-01-24T02:02:08.124Z,61.46
2023-01-24T02:04:38.302Z,61.84
2023-01-24T02:07:10.860Z,62.01
2023-01-24T02:09:46.063Z,61.99
2023-01-24T02:12:14.753Z,61.68
2023-01-24T02:15:00.142Z,61.54
2023-01-24T02:17:28.867Z,61.61
2023-01-24T02:19:58.621Z,61.25
2023-01-24T02:22:38.127Z,60.65
2023-01-24T02:25:16.856Z,60.82
2023-01-24T02:27:43.873Z,60.64
2023-01-24T02:30:11.148Z,60.59
2023-01-24T02:32:38.383Z,60.71
2023-01-24T02:35:06.410Z,60.58
2023-01-24T02:37:38.653Z,60.17
2023-01-24T02:40:07.185Z,60.23
2023-01-24T02:42:35.517Z,60.47
2023-01-24T02:45:10.014Z,59.84
2023-01-24T02:47:37.998Z,60.38
2023-01-24T02:50:09.356Z,60.78
2023-01-24T02:52:55.690Z,60.38
2023-01-24T02:55:23.381Z,60.45
2023-01-24T02:58:08.617Z,59.88
2023-01-24T03:00:39.011Z,59.17
2023-01-24T03:03:06.464Z,59.48
2023-01-24T03:05:52.646Z,59.10
2023-01-24T03:08:19.343Z,59.56
2023-01-24T03:10:54.900Z,59.49
2023-01-24T03:13:40.721Z,59.48
2023-01-24T03:16:30.375Z,59.18
2023-01-24T03:19:15.760Z,59.26
2023-01-24T03:22:01.170Z,59.42
2023-01-24T03:24:47.154Z,59.78
2023-01-24T03:27:32.547Z,59.34
2023-01-24T03:30:18.536Z,59.48
2023-01-24T03:33:06.879Z,59.47
2023-01-24T03:35:34.108Z,59.44
2023-01-24T03:38:19.405Z,59.53
2023-01-24T03:40:52.199Z,59.36
2023-01-24T03:43:19.275Z,59.45
2023-01-24T03:45:52.786Z,59.59
2023-01-24T03:48:37.451Z,59.74
2023-01-24T03:51:25.100Z,59.72
2023-01-24T03:53:54.225Z,59.75
2023-01-24T03:56:25.438Z,59.93
2023-01-24T03:58:57.023Z,59.98
2023-01-24T04:01:30.178Z,59.93
2023-01-24T04:04:05.398Z,60.15
2023-01-24T04:06:35.225Z,59.56
2023-01-24T04:09:05.048Z,59.88
2023-01-24T04:11:33.361Z,59.74
2023-01-24T04:14:13.259Z,59.89
2023-01-24T04:16:53.663Z,59.35
2023-01-24T04:19:25.299Z,59.26
2023-01-24T04:21:52.147Z,59.00
2023-01-24T04:24:21.743Z,58.95
2023-01-24T04:26:48.627Z,58.83
2023-01-24T04:29:22.204Z,58.75
2023-01-24T04:31:52.862Z,58.67
2023-01-24T04:34:34.633Z,58.08
2023-01-24T04:37:01.371Z,57.86
2023-01-24T04:39:30.593Z,57.94
2023-01-24T04:42:07.754Z,57.93
2023-01-24T04:44:37.293Z,58.51
2023-01-24T04:47:09.670Z,58.90
2023-01-24T04:49:41.104Z,58.21
2023-01-24T04:52:12.308Z,57.80
2023-01-24T04:55:09.348Z,58.01
2023-01-24T04:57:36.171Z,58.12
2023-01-24T05:00:04.874Z,57.87
2023-01-24T05:02:34.118Z,58.03
2023-01-24T05:05:05.843Z,58.32
2023-01-24T05:07:32.821Z,58.39
2023-01-24T05:10:09.017Z,58.43
2023-01-24T05:12:43.311Z,58.93
2023-01-24T05:15:22.778Z,59.26
2023-01-24T05:18:02.683Z,58.20
2023-01-24T05:20:32.346Z,58.98
2023-01-24T05:23:03.155Z,58.91
2023-01-24T05:25:35.060Z,58.20
2023-01-24T05:28:07.202Z,57.99
2023-01-24T05:30:41.555Z,58.25
2023-01-24T05:33:21.230Z,58.00
2023-01-24T05:35:51.052Z,58.55
2023-01-24T05:38:27.516Z,59.37
2023-01-24T05:51:49.555Z,60.54
2023-01-24T05:54:26.972Z,60.88
2023-01-24T05:57:05.777Z,61.09
2023-01-24T05:59:52.611Z,60.92
2023-01-24T06:02:21.947Z,60.99
2023-01-24T06:04:57.590Z,60.99
2023-01-24T06:07:29.846Z,60.87
2023-01-24T06:09:59.042Z,60.75
2023-01-24T06:12:36.661Z,60.63
2023-01-24T06:15:05.703Z,60.58
2023-01-24T06:17:34.897Z,61.05
2023-01-24T06:20:01.674Z,60.71
2023-01-24T06:22:36.709Z,60.98
2023-01-24T06:25:07.587Z,61.02
2023-01-24T06:27:46.359Z,61.24
2023-01-24T06:30:20.516Z,61.14
2023-01-24T06:32:52.544Z,61.48
2023-01-24T06:35:30.866Z,61.31
2023-01-24T06:38:00.079Z,61.65
2023-01-24T06:40:29.322Z,61.42
2023-01-24T06:42:59.278Z,61.45
2023-01-24T06:45:26.389Z,61.51
2023-01-24T06:47:58.619Z,61.86
2023-01-24T06:50:32.377Z,61.96
2023-01-24T06:52:59.222Z,62.02
2023-01-24T06:55:26.460Z,62.39
2023-01-24T06:57:59.753Z,62.30
2023-01-24T07:00:26.536Z,62.47
2023-01-24T07:03:00.470Z,62.58
2023-01-24T07:05:32.081Z,62.89
2023-01-24T07:08:01.975Z,62.83
2023-01-24T07:10:29.788Z,62.54
2023-01-24T07:12:56.789Z,62.93
2023-01-24T07:15:26.035Z,62.79
2023-01-24T07:17:52.877Z,62.84
2023-01-24T07:20:19.776Z,62.71
2023-01-24T07:22:46.867Z,62.70
2023-01-24T07:25:18.117Z,62.65
2023-01-24T07:27:47.395Z,62.44
2023-01-24T07:30:17.425Z,62.35
2023-01-24T07:32:49.037Z,62.18
2023-01-24T07:35:15.836Z,61.84
2023-01-24T07:37:44.934Z,61.58
2023-01-24T07:40:13.956Z,61.30
2023-01-24T07:42:40.548Z,61.44
2023-01-24T07:45:07.724Z,60.75
2023-01-24T07:47:37.214Z,60.65
2023-01-24T07:50:06.271Z,60.32
2023-01-24T07:52:35.131Z,60.18
2023-01-24T07:55:02.823Z,59.43
2023-01-24T07:57:31.290Z,58.53
2023-01-24T07:59:58.068Z,59.29
2023-01-24T08:02:24.812Z,59.49
2023-01-24T08:04:51.980Z,59.70
2023-01-24T08:07:18.878Z,59.02
2023-01-24T08:09:46.269Z,58.69
2023-01-24T08:12:19.492Z,58.44
2023-01-24T08:14:47.423Z,58.89
2023-01-24T08:17:14.188Z,58.36
2023-01-24T08:19:55.389Z,58.10
2023-01-24T08:22:22.961Z,57.96
2023-01-24T08:24:51.977Z,57.49
2023-01-24T08:27:18.972Z,57.43
2023-01-24T08:29:45.657Z,57.56
2023-01-24T08:32:14.677Z,57.48
2023-01-24T08:34:44.345Z,57.13
2023-01-24T08:37:11.019Z,56.97
2023-01-24T08:39:37.619Z,56.66
2023-01-24T08:42:04.688Z,57.08
2023-01-24T08:44:34.378Z,56.91
2023-01-24T08:47:05.673Z,56.74
2023-01-24T08:49:34.748Z,56.58
2023-01-24T08:52:01.393Z,56.19
2023-01-24T08:54:28.781Z,55.99
2023-01-24T08:56:58.089Z,56.51
2023-01-24T08:59:24.734Z,56.43
2023-01-24T09:01:54.518Z,56.66
2023-01-24T09:04:23.464Z,56.38
2023-01-24T09:06:52.179Z,56.50
2023-01-24T09:09:18.904Z,56.26
2023-01-24T09:11:45.711Z,56.20
2023-01-24T09:14:12.436Z,56.08
2023-01-24T09:16:39.275Z,55.91
2023-01-24T09:19:06.046Z,55.82
2023-01-24T09:21:32.952Z,55.61
2023-01-24T09:24:00.748Z,55.58
2023-01-24T09:26:27.454Z,55.71
2023-01-24T09:28:54.064Z,55.90
2023-01-24T09:31:26.229Z,55.92
2023-01-24T09:33:59.454Z,55.90
2023-01-24T09:36:27.082Z,55.49
2023-01-24T09:39:04.981Z,55.57
2023-01-24T09:41:42.191Z,55.03
2023-01-24T09:44:15.302Z,55.70
2023-01-24T09:46:45.954Z,55.85
2023-01-24T09:49:16.996Z,56.09
2023-01-24T09:51:47.141Z,56.37
2023-01-24T09:54:28.318Z,56.14
2023-01-24T09:56:55.481Z,56.34
2023-01-24T09:59:27.262Z,55.64
2023-01-24T10:01:56.735Z,55.70
2023-01-24T10:04:26.706Z,54.72
2023-01-24T10:06:55.769Z,53.75
2023-01-24T10:09:48.468Z,53.04
2023-01-24T10:12:29.551Z,51.85
2023-01-24T10:15:06.228Z,49.23
2023-01-24T10:17:41.885Z,50.47
2023-01-24T10:20:27.360Z,50.21
2023-01-24T10:23:01.482Z,48.83
2023-01-24T10:25:29.068Z,48.57
2023-01-24T10:27:58.560Z,48.56
2023-01-24T10:30:46.017Z,48.37
2023-01-24T10:33:18.028Z,47.51
2023-01-24T10:36:00.039Z,48.53
2023-01-24T10:38:27.180Z,48.18
2023-01-24T10:40:57.629Z,47.50
2023-01-24T10:43:25.080Z,48.04
2023-01-24T10:46:06.478Z,48.37
2023-01-24T10:48:35.574Z,47.93
2023-01-24T10:51:12.476Z,48.04
2023-01-24T10:53:39.615Z,48.61
2023-01-24T10:56:06.879Z,47.94
2023-01-24T10:58:36.863Z,49.21
2023-01-24T11:01:08.059Z,49.11
2023-01-24T11:03:40.942Z,48.69
2023-01-24T11:06:22.354Z,48.42
2023-01-24T11:08:51.410Z,49.97
2023-01-24T11:11:24.755Z,50.04
2023-01-24T11:13:54.778Z,50.42
2023-01-24T11:16:23.154Z,50.04
2023-01-24T11:18:59.295Z,48.32
2023-01-24T11:21:26.557Z,48.88
2023-01-24T11:24:23.662Z,48.19
2023-01-24T11:27:05.138Z,47.45
2023-01-24T11:29:34.984Z,48.84
2023-01-24T11:32:05.010Z,48.51
2023-01-24T11:34:43.673Z,48.96
2023-01-24T11:37:29.620Z,48.10
2023-01-24T11:39:58.509Z,48.03
2023-01-24T11:42:30.371Z,48.03
2023-01-24T11:45:12.497Z,47.39
2023-01-24T11:47:53.878Z,47.25
2023-01-24T11:50:42.165Z,47.33
2023-01-24T11:53:21.429Z,46.49
2023-01-24T11:55:51.576Z,46.81
2023-01-24T11:58:30.857Z,46.90
2023-01-24T12:01:02.867Z,47.54
2023-01-24T12:03:34.889Z,46.81
2023-01-24T12:06:17.233Z,47.28
2023-01-24T12:08:45.993Z,46.70
2023-01-24T12:11:29.810Z,46.46
2023-01-24T12:14:05.387Z,45.99
2023-01-24T12:16:54.213Z,45.01
2023-01-24T12:19:39.956Z,45.17
2023-01-24T12:22:19.197Z,45.13
2023-01-24T12:25:05.017Z,45.12
2023-01-24T12:27:35.115Z,44.89
2023-01-24T12:30:01.783Z,43.44
2023-01-24T12:32:43.833Z,43.54
2023-01-24T12:35:31.650Z,42.85
2023-01-24T12:38:08.469Z,40.86
2023-01-24T12:40:48.167Z,41.67
2023-01-24T12:43:18.080Z,41.95
2023-01-24T12:45:47.953Z,42.18
2023-01-24T12:48:23.037Z,42.30
2023-01-24T12:51:27.825Z,42.02
2023-01-24T12:54:12.454Z,42.61
2023-01-24T12:56:39.184Z,43.32
2023-01-24T12:59:09.751Z,44.34
2023-01-24T13:01:39.865Z,45.44
2023-01-24T13:04:15.073Z,45.90
2023-01-24T13:06:47.755Z,45.75
2023-01-24T13:09:33.221Z,46.93
2023-01-24T13:12:00.050Z,47.67
2023-01-24T13:14:38.755Z,48.01
2023-01-24T13:17:17.720Z,48.19
2023-01-24T13:19:47.030Z,48.31
2023-01-24T13:22:19.867Z,48.73
2023-01-24T13:25:13.487Z,49.19
2023-01-24T13:27:42.414Z,49.26
2023-01-24T13:30:27.745Z,49.41
2023-01-24T13:32:54.708Z,49.58
2023-01-24T13:35:22.576Z,49.63
2023-01-24T13:37:53.173Z,49.95
2023-01-24T13:40:27.989Z,50.10
2023-01-24T13:42:57.606Z,50.04
2023-01-24T13:45:30.541Z,50.31
2023-01-24T13:47:58.254Z,50.04
2023-01-24T13:50:25.516Z,49.98
2023-01-24T13:52:55.327Z,49.72
2023-01-24T13:55:25.610Z,49.74
2023-01-24T13:58:00.587Z,49.20
2023-01-24T14:00:27.400Z,49.20
2023-01-24T14:03:00.703Z,49.27
2023-01-24T14:05:32.758Z,48.79
2023-01-24T14:08:16.041Z,49.17
2023-01-24T14:10:54.409Z,49.04
2023-01-24T14:13:40.061Z,48.58
2023-01-24T14:16:09.447Z,48.46
2023-01-24T14:18:49.129Z,49.03
2023-01-24T14:21:20.279Z,49.13
2023-01-24T14:23:50.179Z,49.14
2023-01-24T14:26:20.146Z,49.21
2023-01-24T14:28:46.997Z,49.32
2023-01-24T14:31:20.594Z,48.24
2023-01-24T14:33:52.024Z,48.95
2023-01-24T14:36:29.687Z,48.71
2023-01-24T14:39:11.886Z,49.12
2023-01-24T14:41:41.122Z,49.48
2023-01-24T14:44:21.793Z,49.90
2023-01-24T14:47:12.301Z,50.16
2023-01-24T14:49:45.963Z,50.42
2023-01-24T14:52:23.691Z,50.76
2023-01-24T14:54:57.970Z,51.07
2023-01-24T14:57:25.890Z,51.21
2023-01-24T15:00:01.815Z,51.56
2023-01-24T15:02:31.109Z,51.62
2023-01-24T15:04:57.737Z,51.88
2023-01-24T15:07:24.578Z,51.94
2023-01-24T15:09:51.273Z,52.13
2023-01-24T15:12:28.804Z,52.79
2023-01-24T15:14:55.645Z,53.49
2023-01-24T15:17:23.573Z,53.51
2023-01-24T15:19:59.897Z,54.02
2023-01-24T15:22:27.517Z,54.06
2023-01-24T15:24:58.333Z,54.35
2023-01-24T15:27:25.791Z,54.86
2023-01-24T15:30:11.104Z,55.16
2023-01-24T15:32:40.288Z,55.63
2023-01-24T15:35:12.894Z,55.70
2023-01-24T15:37:41.649Z,55.70
2023-01-24T15:40:20.616Z,56.37
2023-01-24T15:43:08.905Z,56.39
2023-01-24T15:45:39.523Z,56.89
2023-01-24T15:48:16.628Z,57.64
2023-01-24T15:51:09.452Z,57.62
2023-01-24T15:53:42.884Z,59.01
2023-01-24T15:56:35.191Z,59.12
2023-01-24T15:59:10.337Z,59.98
2023-01-24T16:01:41.952Z,60.00
2023-01-24T16:04:20.248Z,60.11
2023-01-24T16:06:49.335Z,59.93
2023-01-24T16:09:16.180Z,60.41
2023-01-24T16:11:46.302Z,60.97
2023-01-24T16:14:23.345Z,61.02
2023-01-24T16:16:51.181Z,61.98
2023-01-24T16:19:18.856Z,62.19
2023-01-24T16:21:45.576Z,61.51
2023-01-24T16:24:12.578Z,61.65
2023-01-24T16:26:43.177Z,61.66
2023-01-24T16:29:16.094Z,61.74
2023-01-24T16:31:42.889Z,61.58
2023-01-24T16:34:14.483Z,61.57
2023-01-24T16:36:41.340Z,61.26
2023-01-24T16:39:11.115Z,61.53
2023-01-24T16:41:40.253Z,61.34
2023-01-24T16:44:06.854Z,61.45
2023-01-24T16:46:33.706Z,61.42
2023-01-24T16:49:00.911Z,61.80
2023-01-24T16:51:30.134Z,61.94
2023-01-24T16:53:59.213Z,61.73
2023-01-24T16:56:32.705Z,61.83
2023-01-24T16:59:02.262Z,61.70
2023-01-24T17:01:31.155Z,61.53
2023-01-24T17:03:58.250Z,61.48
2023-01-24T17:06:27.345Z,61.40
2023-01-24T17:08:54.032Z,61.29
2023-01-24T17:11:20.744Z,61.21
2023-01-24T17:13:59.442Z,61.31
2023-01-24T17:16:26.285Z,61.39
2023-01-24T17:18:52.925Z,61.59
2023-01-24T17:21:19.682Z,61.54
2023-01-24T17:23:54.260Z,61.83
2023-01-24T17:26:21.011Z,61.93
2023-01-24T17:28:47.564Z,62.11
2023-01-24T17:31:18.360Z,62.15
2023-01-24T17:33:47.285Z,62.11
2023-01-24T17:36:19.095Z,61.94
2023-01-24T17:38:48.691Z,61.88
2023-01-24T17:41:18.434Z,62.31
2023-01-24T17:43:52.985Z,62.14
2023-01-24T17:46:20.093Z,62.76
2023-01-24T17:48:49.219Z,62.47
2023-01-24T17:51:18.706Z,62.43
2023-01-24T17:53:48.007Z,63.09
2023-01-24T17:56:15.111Z,63.35
2023-01-24T17:58:44.156Z,63.32
2023-01-24T18:01:16.347Z,63.06
2023-01-24T18:03:48.879Z,64.08
2023-01-24T18:06:19.071Z,63.73
2023-01-24T18:08:48.289Z,63.83
2023-01-24T18:11:18.124Z,64.67
2023-01-24T18:13:44.907Z,64.61
2023-01-24T18:16:15.059Z,64.40
2023-01-24T18:18:42.154Z,64.69
2023-01-24T18:21:14.209Z,64.71
2023-01-24T18:23:41.455Z,64.98
2023-01-24T18:26:13.951Z,65.42
2023-01-24T18:28:41.301Z,64.96
2023-01-24T18:31:11.289Z,65.07
2023-01-24T18:33:43.364Z,65.44
2023-01-24T18:36:16.781Z,65.72
2023-01-24T18:38:56.794Z,65.78
2023-01-24T18:41:24.028Z,65.74
2023-01-24T18:43:53.123Z,65.78
2023-01-24T18:46:19.888Z,65.59
2023-01-24T18:48:46.462Z,65.80
2023-01-24T18:51:16.392Z,65.50
2023-01-24T18:53:43.932Z,65.41
2023-01-24T18:58:53.925Z,65.66
2023-01-24T19:01:23.224Z,65.49
2023-01-24T19:03:57.667Z,65.71
2023-01-24T19:06:30.990Z,65.84
2023-01-24T19:09:03.841Z,65.90
2023-01-24T19:11:34.985Z,65.82
2023-01-24T19:14:04.839Z,65.66
2023-01-24T19:16:43.629Z,66.00
2023-01-24T19:19:12.478Z,65.52
2023-01-24T19:21:39.338Z,65.45
2023-01-24T19:24:06.447Z,65.35
2023-01-24T19:26:33.313Z,65.46
2023-01-24T19:29:00.445Z,65.44
2023-01-24T19:31:28.143Z,65.47
2023-01-24T19:33:55.239Z,65.35
2023-01-24T19:36:24.674Z,65.38
2023-01-24T19:38:57.626Z,65.52
2023-01-24T19:41:24.915Z,65.50
2023-01-24T19:44:17.254Z,65.44
2023-01-24T19:46:38.976Z,65.42
2023-01-24T19:49:06.084Z,65.60
2023-01-24T19:51:57.613Z,65.85
2023-01-24T19:54:26.737Z,66.15
2023-01-24T19:56:55.568Z,66.13
2023-01-24T19:59:22.783Z,65.83
2023-01-24T20:01:50.625Z,66.10
2023-01-24T20:04:24.546Z,65.80
2023-01-24T20:06:54.551Z,65.84
2023-01-24T20:09:21.656Z,65.80
2023-01-24T20:11:48.250Z,65.69
2023-01-24T20:14:14.813Z,65.58
2023-01-24T20:16:41.552Z,65.60
2023-01-24T20:19:18.562Z,65.68
2023-01-24T20:21:49.191Z,65.39
2023-01-24T20:24:18.566Z,65.36
2023-01-24T20:26:46.083Z,65.28
2023-01-24T20:29:15.825Z,65.15
2023-01-24T20:31:42.552Z,65.09
2023-01-24T20:34:11.578Z,65.08
2023-01-24T20:36:41.829Z,64.92
2023-01-24T20:39:08.731Z,65.37
2023-01-24T20:41:40.064Z,66.12
2023-01-24T20:44:12.468Z,66.22
2023-01-24T20:46:42.203Z,66.07
2023-01-24T20:49:11.599Z,66.19
2023-01-24T20:51:40.655Z,66.12
2023-01-24T20:54:09.898Z,66.16
2023-01-24T20:56:42.044Z,66.14
2023-01-24T20:59:11.207Z,66.30
2023-01-24T21:01:43.899Z,66.39
2023-01-24T21:04:10.704Z,66.18
2023-01-24T21:06:47.153Z,66.48
2023-01-24T21:09:15.885Z,66.42
2023-01-24T21:11:45.027Z,66.77
2023-01-24T21:14:12.700Z,66.60
2023-01-24T21:16:39.491Z,66.84
2023-01-24T21:19:10.985Z,66.89
2023-01-24T21:21:38.738Z,67.02
2023-01-24T21:24:17.220Z,66.87
2023-01-24T21:26:47.194Z,67.76
2023-01-24T21:29:18.276Z,67.37
2023-01-24T21:31:45.115Z,67.24
2023-01-24T21:34:12.307Z,67.42
2023-01-24T21:36:42.228Z,67.23
2023-01-24T21:39:17.767Z,67.27
2023-01-24T21:42:01.451Z,67.21
2023-01-24T21:44:34.338Z,67.19
2023-01-24T21:47:01.826Z,67.14
2023-01-24T21:49:33.933Z,67.33
2023-01-24T21:52:11.157Z,67.87
2023-01-24T21:54:40.912Z,68.70
2023-01-24T21:57:33.194Z,68.44
2023-01-24T22:00:09.523Z,68.15
2023-01-24T22:02:43.587Z,67.94
2023-01-24T22:05:12.965Z,68.01
2023-01-24T22:07:41.825Z,67.86
2023-01-24T22:10:10.203Z,67.79
2023-01-24T22:12:41.257Z,67.33
2023-01-24T22:15:08.477Z,67.68
2023-01-24T22:17:40.631Z,67.56
2023-01-24T22:20:20.858Z,67.16
2023-01-24T22:22:47.624Z,67.23
2023-01-24T22:25:36.743Z,67.26
2023-01-24T22:28:09.040Z,67.20
2023-01-24T22:30:42.774Z,67.18
2023-01-24T22:33:18.396Z,66.78
2023-01-24T22:35:48.586Z,66.35
2023-01-24T22:38:15.633Z,66.56
2023-01-24T22:40:42.986Z,66.27
2023-01-24T22:43:13.714Z,66.36
2023-01-24T22:45:42.629Z,66.39
2023-01-24T22:48:15.734Z,66.60
2023-01-24T22:50:43.473Z,67.41
2023-01-24T22:53:13.370Z,67.85
2023-01-24T22:55:45.066Z,67.67
2023-01-24T22:58:14.255Z,67.91
2023-01-24T23:00:40.934Z,67.62
2023-01-24T23:03:07.584Z,67.47
2023-01-24T23:05:34.612Z,67.46
2023-01-24T23:08:01.286Z,67.83
2023-01-24T23:10:27.929Z,67.92
2023-01-24T23:13:13.147Z,68.35
2023-01-24T23:16:03.476Z,68.04
2023-01-24T23:18:48.932Z,68.25
2023-01-24T23:21:27.819Z,68.69
2023-01-24T23:23:54.609Z,68.91
2023-01-24T23:26:23.538Z,69.06
2023-01-24T23:28:56.926Z,69.55
2023-01-24T23:31:26.610Z,69.65
2023-01-24T23:33:55.689Z,69.33
2023-01-24T23:36:27.209Z,68.91
2023-01-24T23:38:56.387Z,68.81
2023-01-24T23:41:25.415Z,68.33
2023-01-24T23:43:57.147Z,68.26
2023-01-24T23:46:26.433Z,67.96
2023-01-24T23:48:59.245Z,67.77
2023-01-24T23:51:27.249Z,67.81
2023-01-24T23:53:56.297Z,67.70
2023-01-24T23:56:23.047Z,67.46
2023-01-24T23:58:49.666Z,67.38
